sensor_id;sensor_type;location;lat;lon;timestamp;temperature;humidity
36924;DHT22;22841;50.252;18.688;2022-09-17T00:01:04;10.70;97.00
36924;DHT22;22841;50.252;18.688;2022-09-17T00:03:33;10.70;98.70
36924;DHT22;22841;50.252;18.688;2022-09-17T00:06:07;10.60;98.50
36924;DHT22;22841;50.252;18.688;2022-09-17T00:08:35;10.70;99.60
36924;DHT22;22841;50.252;18.688;2022-09-17T00:11:16;10.70;99.90
36924;DHT22;22841;50.252;18.688;2022-09-17T00:13:43;10.80;99.90
36924;DHT22;22841;50.252;18.688;2022-09-17T00:16:10;10.70;99.80
36924;DHT22;22841;50.252;18.688;2022-09-17T00:18:36;10.70;99.70
36924;DHT22;22841;50.252;18.688;2022-09-17T00:21:14;10.70;98.90
36924;DHT22;22841;50.252;18.688;2022-09-17T00:23:41;10.70;99.40
36924;DHT22;22841;50.252;18.688;2022-09-17T00:26:07;10.70;98.60
36924;DHT22;22841;50.252;18.688;2022-09-17T00:28:33;10.60;98.80
36924;DHT22;22841;50.252;18.688;2022-09-17T00:30:59;10.60;98.50
36924;DHT22;22841;50.252;18.688;2022-09-17T00:33:25;10.60;98.30
36924;DHT22;22841;50.252;18.688;2022-09-17T00:36:02;10.50;97.50
36924;DHT22;22841;50.252;18.688;2022-09-17T00:38:28;10.50;97.90
36924;DHT22;22841;50.252;18.688;2022-09-17T00:40:54;10.40;98.40
36924;DHT22;22841;50.252;18.688;2022-09-17T00:43:34;10.40;98.80
36924;DHT22;22841;50.252;18.688;2022-09-17T00:46:01;10.40;97.90
36924;DHT22;22841;50.252;18.688;2022-09-17T00:48:27;10.30;98.40
36924;DHT22;22841;50.252;18.688;2022-09-17T00:50:54;10.20;97.50
36924;DHT22;22841;50.252;18.688;2022-09-17T00:53:21;10.20;99.30
36924;DHT22;22841;50.252;18.688;2022-09-17T00:55:48;10.20;99.30
36924;DHT22;22841;50.252;18.688;2022-09-17T00:58:20;10.20;99.30
36924;DHT22;22841;50.252;18.688;2022-09-17T01:00:47;10.20;99.60
36924;DHT22;22841;50.252;18.688;2022-09-17T01:03:14;10.20;99.60
36924;DHT22;22841;50.252;18.688;2022-09-17T01:08:26;10.20;99.90
36924;DHT22;22841;50.252;18.688;2022-09-17T01:11:11;10.20;99.90
36924;DHT22;22841;50.252;18.688;2022-09-17T01:17:36;10.10;99.10
36924;DHT22;22841;50.252;18.688;2022-09-17T01:22:44;10.10;99.90
36924;DHT22;22841;50.252;18.688;2022-09-17T01:28:28;10.00;99.90
36924;DHT22;22841;50.252;18.688;2022-09-17T01:33:57;9.80;99.90
36924;DHT22;22841;50.252;18.688;2022-09-17T01:39:18;9.80;99.90
36924;DHT22;22841;50.252;18.688;2022-09-17T01:41:53;9.80;99.90
36924;DHT22;22841;50.252;18.688;2022-09-17T01:47:34;10.00;99.90
36924;DHT22;22841;50.252;18.688;2022-09-17T01:50:09;10.00;99.90
36924;DHT22;22841;50.252;18.688;2022-09-17T01:52:39;10.00;99.90
36924;DHT22;22841;50.252;18.688;2022-09-17T01:55:10;10.00;99.90
36924;DHT22;22841;50.252;18.688;2022-09-17T01:57:55;10.00;99.90
36924;DHT22;22841;50.252;18.688;2022-09-17T02:00:23;10.00;99.90
36924;DHT22;22841;50.252;18.688;2022-09-17T02:05:33;9.90;99.80
36924;DHT22;22841;50.252;18.688;2022-09-17T02:08:09;9.90;99.90
36924;DHT22;22841;50.252;18.688;2022-09-17T02:10:44;10.00;99.90
36924;DHT22;22841;50.252;18.688;2022-09-17T02:13:25;9.90;99.90
36924;DHT22;22841;50.252;18.688;2022-09-17T02:15:57;9.90;99.90
36924;DHT22;22841;50.252;18.688;2022-09-17T02:21:21;9.80;99.90
36924;DHT22;22841;50.252;18.688;2022-09-17T02:26:49;9.80;99.90
36924;DHT22;22841;50.252;18.688;2022-09-17T02:29:24;9.90;99.90
36924;DHT22;22841;50.252;18.688;2022-09-17T02:31:51;9.80;99.90
36924;DHT22;22841;50.252;18.688;2022-09-17T02:34:18;9.90;99.90
36924;DHT22;22841;50.252;18.688;2022-09-17T02:36:44;9.80;99.90
36924;DHT22;22841;50.252;18.688;2022-09-17T02:39:11;9.90;99.90
36924;DHT22;22841;50.252;18.688;2022-09-17T02:42:08;9.80;99.90
36924;DHT22;22841;50.252;18.688;2022-09-17T02:50:44;9.80;99.90
36924;DHT22;22841;50.252;18.688;2022-09-17T02:53:24;9.80;99.90
36924;DHT22;22841;50.252;18.688;2022-09-17T02:58:52;9.80;99.90
36924;DHT22;22841;50.252;18.688;2022-09-17T03:01:32;9.70;99.90
36924;DHT22;22841;50.252;18.688;2022-09-17T03:04:00;9.70;99.90
36924;DHT22;22841;50.252;18.688;2022-09-17T03:06:27;9.70;99.90
36924;DHT22;22841;50.252;18.688;2022-09-17T03:08:54;9.60;99.90
36924;DHT22;22841;50.252;18.688;2022-09-17T03:11:22;9.70;99.90
36924;DHT22;22841;50.252;18.688;2022-09-17T03:13:48;9.70;99.90
36924;DHT22;22841;50.252;18.688;2022-09-17T03:16:14;9.70;99.90
36924;DHT22;22841;50.252;18.688;2022-09-17T03:18:40;9.70;99.90
36924;DHT22;22841;50.252;18.688;2022-09-17T03:21:06;9.60;99.90
36924;DHT22;22841;50.252;18.688;2022-09-17T03:23:32;9.60;99.90
36924;DHT22;22841;50.252;18.688;2022-09-17T03:25:59;9.60;99.90
36924;DHT22;22841;50.252;18.688;2022-09-17T03:28:25;9.70;99.90
36924;DHT22;22841;50.252;18.688;2022-09-17T03:30:52;9.60;99.90
36924;DHT22;22841;50.252;18.688;2022-09-17T03:33:18;9.50;99.90
36924;DHT22;22841;50.252;18.688;2022-09-17T03:35:45;9.50;99.90
36924;DHT22;22841;50.252;18.688;2022-09-17T03:38:12;9.50;99.90
36924;DHT22;22841;50.252;18.688;2022-09-17T03:40:38;9.50;99.90
36924;DHT22;22841;50.252;18.688;2022-09-17T03:43:05;9.50;99.90
36924;DHT22;22841;50.252;18.688;2022-09-17T03:45:32;9.50;99.90
36924;DHT22;22841;50.252;18.688;2022-09-17T03:47:58;9.50;99.90
36924;DHT22;22841;50.252;18.688;2022-09-17T03:50:27;9.40;99.90
36924;DHT22;22841;50.252;18.688;2022-09-17T03:52:53;9.40;99.90
36924;DHT22;22841;50.252;18.688;2022-09-17T03:55:19;9.40;99.90
36924;DHT22;22841;50.252;18.688;2022-09-17T03:57:45;9.40;99.90
36924;DHT22;22841;50.252;18.688;2022-09-17T04:00:11;9.40;99.90
36924;DHT22;22841;50.252;18.688;2022-09-17T04:02:40;9.30;99.90
36924;DHT22;22841;50.252;18.688;2022-09-17T04:05:06;9.30;99.90
36924;DHT22;22841;50.252;18.688;2022-09-17T04:07:33;9.30;99.90
36924;DHT22;22841;50.252;18.688;2022-09-17T04:09:59;9.30;99.90
36924;DHT22;22841;50.252;18.688;2022-09-17T04:12:25;9.30;99.90
36924;DHT22;22841;50.252;18.688;2022-09-17T04:14:54;9.30;99.90
36924;DHT22;22841;50.252;18.688;2022-09-17T04:17:20;9.40;99.90
36924;DHT22;22841;50.252;18.688;2022-09-17T04:19:46;9.30;99.90
36924;DHT22;22841;50.252;18.688;2022-09-17T04:22:12;9.20;99.90
36924;DHT22;22841;50.252;18.688;2022-09-17T04:24:38;9.20;99.90
36924;DHT22;22841;50.252;18.688;2022-09-17T04:27:04;9.20;99.90
36924;DHT22;22841;50.252;18.688;2022-09-17T04:29:30;9.30;99.90
36924;DHT22;22841;50.252;18.688;2022-09-17T04:31:56;9.30;99.90
36924;DHT22;22841;50.252;18.688;2022-09-17T04:34:22;9.30;99.90
36924;DHT22;22841;50.252;18.688;2022-09-17T04:36:48;9.20;99.90
36924;DHT22;22841;50.252;18.688;2022-09-17T04:39:14;9.20;99.90
36924;DHT22;22841;50.252;18.688;2022-09-17T04:41:40;9.20;99.90
36924;DHT22;22841;50.252;18.688;2022-09-17T04:44:06;9.20;99.90
36924;DHT22;22841;50.252;18.688;2022-09-17T04:46:32;9.20;99.90
36924;DHT22;22841;50.252;18.688;2022-09-17T04:48:58;9.20;99.90
36924;DHT22;22841;50.252;18.688;2022-09-17T04:51:24;9.20;99.90
36924;DHT22;22841;50.252;18.688;2022-09-17T04:53:50;9.20;99.90
36924;DHT22;22841;50.252;18.688;2022-09-17T04:56:16;9.20;99.90
36924;DHT22;22841;50.252;18.688;2022-09-17T04:58:42;9.30;99.90
36924;DHT22;22841;50.252;18.688;2022-09-17T05:01:08;9.20;99.90
36924;DHT22;22841;50.252;18.688;2022-09-17T05:03:34;9.20;99.90
36924;DHT22;22841;50.252;18.688;2022-09-17T05:06:00;9.20;99.90
36924;DHT22;22841;50.252;18.688;2022-09-17T05:08:26;9.20;99.90
36924;DHT22;22841;50.252;18.688;2022-09-17T05:10:52;9.20;99.90
36924;DHT22;22841;50.252;18.688;2022-09-17T05:13:18;9.30;99.90
36924;DHT22;22841;50.252;18.688;2022-09-17T05:15:45;9.30;99.90
36924;DHT22;22841;50.252;18.688;2022-09-17T05:18:11;9.30;99.90
36924;DHT22;22841;50.252;18.688;2022-09-17T05:20:37;9.30;99.90
36924;DHT22;22841;50.252;18.688;2022-09-17T05:23:03;9.30;99.90
36924;DHT22;22841;50.252;18.688;2022-09-17T05:25:29;9.30;99.90
36924;DHT22;22841;50.252;18.688;2022-09-17T05:27:56;9.40;99.90
36924;DHT22;22841;50.252;18.688;2022-09-17T05:30:22;9.40;99.90
36924;DHT22;22841;50.252;18.688;2022-09-17T05:32:58;9.40;99.90
36924;DHT22;22841;50.252;18.688;2022-09-17T05:35:24;9.50;99.90
36924;DHT22;22841;50.252;18.688;2022-09-17T05:37:50;9.50;99.90
36924;DHT22;22841;50.252;18.688;2022-09-17T05:40:16;9.50;99.90
36924;DHT22;22841;50.252;18.688;2022-09-17T05:42:42;9.50;99.90
36924;DHT22;22841;50.252;18.688;2022-09-17T05:45:08;9.50;99.90
36924;DHT22;22841;50.252;18.688;2022-09-17T05:47:34;9.60;99.90
36924;DHT22;22841;50.252;18.688;2022-09-17T05:50:00;9.60;99.90
36924;DHT22;22841;50.252;18.688;2022-09-17T05:52:28;9.60;99.90
36924;DHT22;22841;50.252;18.688;2022-09-17T05:54:55;9.70;99.90
36924;DHT22;22841;50.252;18.688;2022-09-17T05:57:21;9.70;99.90
36924;DHT22;22841;50.252;18.688;2022-09-17T05:59:47;9.80;99.90
36924;DHT22;22841;50.252;18.688;2022-09-17T06:02:13;9.70;99.90
36924;DHT22;22841;50.252;18.688;2022-09-17T06:04:39;9.80;99.90
36924;DHT22;22841;50.252;18.688;2022-09-17T06:07:05;9.90;99.90
36924;DHT22;22841;50.252;18.688;2022-09-17T06:09:35;9.90;99.90
36924;DHT22;22841;50.252;18.688;2022-09-17T06:12:08;9.90;99.90
36924;DHT22;22841;50.252;18.688;2022-09-17T06:14:34;10.00;99.90
36924;DHT22;22841;50.252;18.688;2022-09-17T06:17:00;10.00;99.90
36924;DHT22;22841;50.252;18.688;2022-09-17T06:19:26;10.10;99.90
36924;DHT22;22841;50.252;18.688;2022-09-17T06:21:53;10.00;99.90
36924;DHT22;22841;50.252;18.688;2022-09-17T06:24:19;10.10;99.90
36924;DHT22;22841;50.252;18.688;2022-09-17T06:26:45;10.20;99.90
36924;DHT22;22841;50.252;18.688;2022-09-17T06:29:12;10.20;99.90
36924;DHT22;22841;50.252;18.688;2022-09-17T06:31:40;10.20;99.90
36924;DHT22;22841;50.252;18.688;2022-09-17T06:34:09;10.30;99.90
36924;DHT22;22841;50.252;18.688;2022-09-17T06:36:36;10.30;99.90
36924;DHT22;22841;50.252;18.688;2022-09-17T06:39:02;10.30;99.90
36924;DHT22;22841;50.252;18.688;2022-09-17T06:41:28;10.40;99.90
36924;DHT22;22841;50.252;18.688;2022-09-17T06:43:55;10.50;99.90
36924;DHT22;22841;50.252;18.688;2022-09-17T06:46:21;10.50;99.90
36924;DHT22;22841;50.252;18.688;2022-09-17T06:48:47;10.50;99.90
36924;DHT22;22841;50.252;18.688;2022-09-17T06:51:13;10.50;99.90
36924;DHT22;22841;50.252;18.688;2022-09-17T06:53:40;10.60;99.90
36924;DHT22;22841;50.252;18.688;2022-09-17T06:56:07;10.60;99.10
36924;DHT22;22841;50.252;18.688;2022-09-17T06:58:34;10.70;99.60
36924;DHT22;22841;50.252;18.688;2022-09-17T07:01:04;10.70;99.50
36924;DHT22;22841;50.252;18.688;2022-09-17T07:03:31;10.80;98.20
36924;DHT22;22841;50.252;18.688;2022-09-17T07:05:57;10.80;98.90
36924;DHT22;22841;50.252;18.688;2022-09-17T07:08:23;10.90;94.70
36924;DHT22;22841;50.252;18.688;2022-09-17T07:10:54;11.00;94.80
36924;DHT22;22841;50.252;18.688;2022-09-17T07:13:20;11.00;93.60
36924;DHT22;22841;50.252;18.688;2022-09-17T07:15:54;11.10;93.30
36924;DHT22;22841;50.252;18.688;2022-09-17T07:18:20;11.20;92.70
36924;DHT22;22841;50.252;18.688;2022-09-17T07:21:02;11.20;88.00
36924;DHT22;22841;50.252;18.688;2022-09-17T07:23:30;11.30;84.00
36924;DHT22;22841;50.252;18.688;2022-09-17T07:25:58;11.40;89.50
36924;DHT22;22841;50.252;18.688;2022-09-17T07:28:25;11.50;78.20
36924;DHT22;22841;50.252;18.688;2022-09-17T07:30:52;11.50;71.70
36924;DHT22;22841;50.252;18.688;2022-09-17T07:33:21;11.50;53.40
36924;DHT22;22841;50.252;18.688;2022-09-17T07:35:54;11.60;59.00
36924;DHT22;22841;50.252;18.688;2022-09-17T07:38:21;11.70;66.70
36924;DHT22;22841;50.252;18.688;2022-09-17T07:40:58;11.60;50.50
36924;DHT22;22841;50.252;18.688;2022-09-17T07:43:31;11.60;50.40
36924;DHT22;22841;50.252;18.688;2022-09-17T07:45:59;11.80;64.30
36924;DHT22;22841;50.252;18.688;2022-09-17T07:48:26;11.80;43.30
36924;DHT22;22841;50.252;18.688;2022-09-17T07:50:53;11.90;23.40
36924;DHT22;22841;50.252;18.688;2022-09-17T07:53:20;11.90;11.10
36924;DHT22;22841;50.252;18.688;2022-09-17T07:55:57;11.90;10.90
36924;DHT22;22841;50.252;18.688;2022-09-17T07:58:28;11.90;1.00
36924;DHT22;22841;50.252;18.688;2022-09-17T08:00:59;12.00;1.00
36924;DHT22;22841;50.252;18.688;2022-09-17T08:03:25;12.10;1.00
36924;DHT22;22841;50.252;18.688;2022-09-17T08:05:51;12.30;1.00
36924;DHT22;22841;50.252;18.688;2022-09-17T08:08:17;12.40;1.00
36924;DHT22;22841;50.252;18.688;2022-09-17T08:10:44;12.50;1.00
36924;DHT22;22841;50.252;18.688;2022-09-17T08:13:10;12.60;1.00
36924;DHT22;22841;50.252;18.688;2022-09-17T08:15:37;12.70;1.00
36924;DHT22;22841;50.252;18.688;2022-09-17T08:18:03;12.80;1.00
36924;DHT22;22841;50.252;18.688;2022-09-17T08:20:29;12.80;99.90
36924;DHT22;22841;50.252;18.688;2022-09-17T08:22:59;12.70;99.90
36924;DHT22;22841;50.252;18.688;2022-09-17T08:25:26;12.70;99.90
36924;DHT22;22841;50.252;18.688;2022-09-17T08:27:53;12.60;99.90
36924;DHT22;22841;50.252;18.688;2022-09-17T08:30:22;12.60;99.90
36924;DHT22;22841;50.252;18.688;2022-09-17T08:32:48;12.50;99.90
36924;DHT22;22841;50.252;18.688;2022-09-17T08:35:14;12.50;99.90
36924;DHT22;22841;50.252;18.688;2022-09-17T08:37:41;12.50;99.90
36924;DHT22;22841;50.252;18.688;2022-09-17T08:40:14;12.50;99.90
36924;DHT22;22841;50.252;18.688;2022-09-17T08:42:59;12.60;99.90
36924;DHT22;22841;50.252;18.688;2022-09-17T08:45:27;12.60;99.90
36924;DHT22;22841;50.252;18.688;2022-09-17T08:48:03;12.60;99.90
36924;DHT22;22841;50.252;18.688;2022-09-17T08:50:35;12.70;99.90
36924;DHT22;22841;50.252;18.688;2022-09-17T08:53:23;12.70;99.90
36924;DHT22;22841;50.252;18.688;2022-09-17T09:01:39;12.90;99.90
36924;DHT22;22841;50.252;18.688;2022-09-17T09:04:56;13.10;99.90
36924;DHT22;22841;50.252;18.688;2022-09-17T09:07:10;13.20;99.90
36924;DHT22;22841;50.252;18.688;2022-09-17T09:09:42;13.40;99.90
36924;DHT22;22841;50.252;18.688;2022-09-17T09:12:32;13.40;99.90
36924;DHT22;22841;50.252;18.688;2022-09-17T09:15:31;13.60;99.90
36924;DHT22;22841;50.252;18.688;2022-09-17T09:17:53;13.60;99.90
36924;DHT22;22841;50.252;18.688;2022-09-17T09:20:35;13.70;99.90
36924;DHT22;22841;50.252;18.688;2022-09-17T09:23:14;13.70;99.90
36924;DHT22;22841;50.252;18.688;2022-09-17T09:25:52;13.60;99.90
36924;DHT22;22841;50.252;18.688;2022-09-17T09:28:46;13.50;99.90
36924;DHT22;22841;50.252;18.688;2022-09-17T09:33:51;13.30;99.90
36924;DHT22;22841;50.252;18.688;2022-09-17T09:36:17;13.30;99.90
36924;DHT22;22841;50.252;18.688;2022-09-17T09:41:31;13.30;99.90
36924;DHT22;22841;50.252;18.688;2022-09-17T09:44:08;13.30;99.90
36924;DHT22;22841;50.252;18.688;2022-09-17T09:53:13;13.10;99.90
36924;DHT22;22841;50.252;18.688;2022-09-17T09:58:40;13.20;99.90
36924;DHT22;22841;50.252;18.688;2022-09-17T10:01:15;13.20;99.90
36924;DHT22;22841;50.252;18.688;2022-09-17T10:03:42;13.30;99.90
36924;DHT22;22841;50.252;18.688;2022-09-17T10:06:15;13.30;99.90
36924;DHT22;22841;50.252;18.688;2022-09-17T10:11:29;13.20;99.90
36924;DHT22;22841;50.252;18.688;2022-09-17T10:14:23;13.20;99.90
36924;DHT22;22841;50.252;18.688;2022-09-17T10:19:46;13.10;99.90
36924;DHT22;22841;50.252;18.688;2022-09-17T10:22:24;13.10;99.90
36924;DHT22;22841;50.252;18.688;2022-09-17T10:24:53;13.10;99.90
36924;DHT22;22841;50.252;18.688;2022-09-17T10:27:21;13.10;99.90
36924;DHT22;22841;50.252;18.688;2022-09-17T10:29:51;13.10;99.90
36924;DHT22;22841;50.252;18.688;2022-09-17T10:32:21;13.10;99.90
36924;DHT22;22841;50.252;18.688;2022-09-17T10:37:45;13.00;99.90
36924;DHT22;22841;50.252;18.688;2022-09-17T10:45:36;13.00;1.00
36924;DHT22;22841;50.252;18.688;2022-09-17T10:48:04;12.90;1.00
36924;DHT22;22841;50.252;18.688;2022-09-17T10:50:31;12.90;1.00
36924;DHT22;22841;50.252;18.688;2022-09-17T10:53:02;12.90;1.00
36924;DHT22;22841;50.252;18.688;2022-09-17T10:55:37;12.90;1.00
36924;DHT22;22841;50.252;18.688;2022-09-17T11:01:26;12.90;1.00
36924;DHT22;22841;50.252;18.688;2022-09-17T11:11:31;13.10;1.00
36924;DHT22;22841;50.252;18.688;2022-09-17T11:17:07;13.00;1.00
36924;DHT22;22841;50.252;18.688;2022-09-17T11:26:05;13.00;1.00
36924;DHT22;22841;50.252;18.688;2022-09-17T11:28:15;13.00;1.00
36924;DHT22;22841;50.252;18.688;2022-09-17T11:33:47;13.10;1.00
36924;DHT22;22841;50.252;18.688;2022-09-17T11:36:47;13.10;1.00
36924;DHT22;22841;50.252;18.688;2022-09-17T11:39:22;13.20;1.00
36924;DHT22;22841;50.252;18.688;2022-09-17T11:41:54;13.20;1.00
36924;DHT22;22841;50.252;18.688;2022-09-17T11:47:34;13.10;1.00
36924;DHT22;22841;50.252;18.688;2022-09-17T11:50:08;13.10;1.00
36924;DHT22;22841;50.252;18.688;2022-09-17T11:52:46;13.10;1.00
36924;DHT22;22841;50.252;18.688;2022-09-17T11:55:18;13.10;1.00
36924;DHT22;22841;50.252;18.688;2022-09-17T11:57:48;13.20;1.00
36924;DHT22;22841;50.252;18.688;2022-09-17T12:00:19;13.30;1.00
36924;DHT22;22841;50.252;18.688;2022-09-17T12:03:01;13.40;1.00
36924;DHT22;22841;50.252;18.688;2022-09-17T12:05:40;13.40;99.90
36924;DHT22;22841;50.252;18.688;2022-09-17T12:13:48;13.60;99.90
36924;DHT22;22841;50.252;18.688;2022-09-17T12:16:30;13.50;99.90
36924;DHT22;22841;50.252;18.688;2022-09-17T12:19:26;13.60;99.90
36924;DHT22;22841;50.252;18.688;2022-09-17T12:21:53;13.60;99.90
36924;DHT22;22841;50.252;18.688;2022-09-17T12:24:27;13.70;1.00
36924;DHT22;22841;50.252;18.688;2022-09-17T12:26:56;13.80;99.90
36924;DHT22;22841;50.252;18.688;2022-09-17T12:33:00;13.80;99.90
36924;DHT22;22841;50.252;18.688;2022-09-17T12:35:41;13.80;99.90
36924;DHT22;22841;50.252;18.688;2022-09-17T12:41:34;13.90;99.90
36924;DHT22;22841;50.252;18.688;2022-09-17T12:46:38;13.90;99.90
36924;DHT22;22841;50.252;18.688;2022-09-17T12:49:34;13.80;99.90
36924;DHT22;22841;50.252;18.688;2022-09-17T12:55:12;13.70;99.90
36924;DHT22;22841;50.252;18.688;2022-09-17T13:00:23;13.80;99.90
36924;DHT22;22841;50.252;18.688;2022-09-17T13:11:24;13.80;99.90
36924;DHT22;22841;50.252;18.688;2022-09-17T13:14:18;13.80;99.90
36924;DHT22;22841;50.252;18.688;2022-09-17T13:16:55;13.80;99.90
36924;DHT22;22841;50.252;18.688;2022-09-17T13:19:46;13.90;99.90
36924;DHT22;22841;50.252;18.688;2022-09-17T13:22:19;13.90;99.90
36924;DHT22;22841;50.252;18.688;2022-09-17T13:24:59;13.90;99.90
36924;DHT22;22841;50.252;18.688;2022-09-17T13:27:27;13.90;99.90
36924;DHT22;22841;50.252;18.688;2022-09-17T13:32:41;14.10;99.90
36924;DHT22;22841;50.252;18.688;2022-09-17T13:37:40;14.10;99.90
36924;DHT22;22841;50.252;18.688;2022-09-17T13:40:31;14.10;99.90
36924;DHT22;22841;50.252;18.688;2022-09-17T13:45:34;14.20;99.90
36924;DHT22;22841;50.252;18.688;2022-09-17T13:48:28;14.10;99.90
36924;DHT22;22841;50.252;18.688;2022-09-17T13:50:54;14.20;99.90
36924;DHT22;22841;50.252;18.688;2022-09-17T13:53:23;14.20;1.00
36924;DHT22;22841;50.252;18.688;2022-09-17T13:55:53;14.20;40.80
36924;DHT22;22841;50.252;18.688;2022-09-17T13:58:21;14.30;54.70
36924;DHT22;22841;50.252;18.688;2022-09-17T14:01:02;14.20;99.90
36924;DHT22;22841;50.252;18.688;2022-09-17T14:13:56;14.00;99.90
36924;DHT22;22841;50.252;18.688;2022-09-17T14:21:56;13.80;99.90
36924;DHT22;22841;50.252;18.688;2022-09-17T14:35:41;13.50;1.00
36924;DHT22;22841;50.252;18.688;2022-09-17T14:43:47;13.40;1.00
36924;DHT22;22841;50.252;18.688;2022-09-17T14:48:46;13.30;1.00
36924;DHT22;22841;50.252;18.688;2022-09-17T14:51:21;13.30;1.00
36924;DHT22;22841;50.252;18.688;2022-09-17T14:56:32;13.40;1.00
36924;DHT22;22841;50.252;18.688;2022-09-17T14:59:00;13.40;1.00
36924;DHT22;22841;50.252;18.688;2022-09-17T15:01:29;13.40;1.00
36924;DHT22;22841;50.252;18.688;2022-09-17T15:06:40;13.40;1.00
36924;DHT22;22841;50.252;18.688;2022-09-17T15:11:41;13.50;1.00
36924;DHT22;22841;50.252;18.688;2022-09-17T15:14:25;13.50;1.00
36924;DHT22;22841;50.252;18.688;2022-09-17T15:16:54;13.60;1.00
36924;DHT22;22841;50.252;18.688;2022-09-17T15:19:35;13.60;1.00
36924;DHT22;22841;50.252;18.688;2022-09-17T15:22:09;13.60;1.00
36924;DHT22;22841;50.252;18.688;2022-09-17T15:25:03;13.70;1.00
36924;DHT22;22841;50.252;18.688;2022-09-17T15:27:38;13.70;99.90
36924;DHT22;22841;50.252;18.688;2022-09-17T15:30:26;13.60;1.00
36924;DHT22;22841;50.252;18.688;2022-09-17T15:32:58;13.70;1.00
36924;DHT22;22841;50.252;18.688;2022-09-17T15:35:27;13.60;1.00
36924;DHT22;22841;50.252;18.688;2022-09-17T15:37:55;13.60;1.00
36924;DHT22;22841;50.252;18.688;2022-09-17T15:40:26;13.50;99.90
36924;DHT22;22841;50.252;18.688;2022-09-17T15:43:03;13.50;99.90
36924;DHT22;22841;50.252;18.688;2022-09-17T15:45:34;13.50;99.90
36924;DHT22;22841;50.252;18.688;2022-09-17T15:48:05;13.40;99.90
36924;DHT22;22841;50.252;18.688;2022-09-17T15:50:34;13.40;1.00
36924;DHT22;22841;50.252;18.688;2022-09-17T15:55:39;13.40;1.00
36924;DHT22;22841;50.252;18.688;2022-09-17T15:58:25;13.30;1.00
36924;DHT22;22841;50.252;18.688;2022-09-17T16:09:34;13.10;1.00
36924;DHT22;22841;50.252;18.688;2022-09-17T16:11:49;13.10;1.00
36924;DHT22;22841;50.252;18.688;2022-09-17T16:14:15;13.10;1.00
36924;DHT22;22841;50.252;18.688;2022-09-17T16:16:41;13.10;1.00
36924;DHT22;22841;50.252;18.688;2022-09-17T16:19:09;13.00;1.00
36924;DHT22;22841;50.252;18.688;2022-09-17T16:21:39;13.00;1.00
36924;DHT22;22841;50.252;18.688;2022-09-17T16:24:05;12.90;1.00
36924;DHT22;22841;50.252;18.688;2022-09-17T16:26:34;12.90;1.00
36924;DHT22;22841;50.252;18.688;2022-09-17T16:29:26;12.90;1.00
36924;DHT22;22841;50.252;18.688;2022-09-17T16:31:52;12.80;8.30
36924;DHT22;22841;50.252;18.688;2022-09-17T16:34:18;12.80;10.40
36924;DHT22;22841;50.252;18.688;2022-09-17T16:36:44;12.80;10.20
36924;DHT22;22841;50.252;18.688;2022-09-17T16:39:10;12.80;16.10
36924;DHT22;22841;50.252;18.688;2022-09-17T16:41:36;12.80;19.40
36924;DHT22;22841;50.252;18.688;2022-09-17T16:44:02;12.70;24.20
36924;DHT22;22841;50.252;18.688;2022-09-17T16:46:29;12.70;28.50
36924;DHT22;22841;50.252;18.688;2022-09-17T16:48:55;12.70;30.80
36924;DHT22;22841;50.252;18.688;2022-09-17T16:51:22;12.80;37.00
36924;DHT22;22841;50.252;18.688;2022-09-17T16:53:48;12.70;43.60
36924;DHT22;22841;50.252;18.688;2022-09-17T16:56:15;12.70;51.10
36924;DHT22;22841;50.252;18.688;2022-09-17T16:58:41;12.70;56.70
36924;DHT22;22841;50.252;18.688;2022-09-17T17:01:14;12.70;56.70
36924;DHT22;22841;50.252;18.688;2022-09-17T17:03:41;12.70;61.60
36924;DHT22;22841;50.252;18.688;2022-09-17T17:06:17;12.70;62.00
36924;DHT22;22841;50.252;18.688;2022-09-17T17:08:43;12.60;65.80
36924;DHT22;22841;50.252;18.688;2022-09-17T17:11:09;12.60;65.50
36924;DHT22;22841;50.252;18.688;2022-09-17T17:13:36;12.60;64.80
36924;DHT22;22841;50.252;18.688;2022-09-17T17:16:09;12.50;54.00
36924;DHT22;22841;50.252;18.688;2022-09-17T17:18:35;12.50;54.90
36924;DHT22;22841;50.252;18.688;2022-09-17T17:21:06;12.50;56.10
36924;DHT22;22841;50.252;18.688;2022-09-17T17:23:33;12.40;42.50
36924;DHT22;22841;50.252;18.688;2022-09-17T17:26:00;12.40;48.20
36924;DHT22;22841;50.252;18.688;2022-09-17T17:28:33;12.40;48.00
36924;DHT22;22841;50.252;18.688;2022-09-17T17:31:00;12.40;56.40
36924;DHT22;22841;50.252;18.688;2022-09-17T17:33:26;12.40;50.40
36924;DHT22;22841;50.252;18.688;2022-09-17T17:35:52;12.40;51.10
36924;DHT22;22841;50.252;18.688;2022-09-17T17:38:18;12.40;51.80
36924;DHT22;22841;50.252;18.688;2022-09-17T17:40:44;12.40;50.60
36924;DHT22;22841;50.252;18.688;2022-09-17T17:43:11;12.40;51.90
36924;DHT22;22841;50.252;18.688;2022-09-17T17:45:38;12.30;62.90
36924;DHT22;22841;50.252;18.688;2022-09-17T17:48:04;12.30;64.00
36924;DHT22;22841;50.252;18.688;2022-09-17T17:50:31;12.20;72.00
36924;DHT22;22841;50.252;18.688;2022-09-17T17:52:57;12.10;74.50
36924;DHT22;22841;50.252;18.688;2022-09-17T17:55:23;12.10;73.10
36924;DHT22;22841;50.252;18.688;2022-09-17T17:57:55;12.00;80.90
36924;DHT22;22841;50.252;18.688;2022-09-17T18:00:22;11.90;85.00
36924;DHT22;22841;50.252;18.688;2022-09-17T18:02:49;11.90;87.20
36924;DHT22;22841;50.252;18.688;2022-09-17T18:05:15;11.90;86.20
36924;DHT22;22841;50.252;18.688;2022-09-17T18:07:41;11.90;87.80
36924;DHT22;22841;50.252;18.688;2022-09-17T18:10:08;11.90;84.70
36924;DHT22;22841;50.252;18.688;2022-09-17T18:12:34;11.90;89.70
36924;DHT22;22841;50.252;18.688;2022-09-17T18:15:03;11.80;83.90
36924;DHT22;22841;50.252;18.688;2022-09-17T18:17:29;11.80;88.60
36924;DHT22;22841;50.252;18.688;2022-09-17T18:19:56;11.80;86.10
36924;DHT22;22841;50.252;18.688;2022-09-17T18:22:22;11.80;92.00
36924;DHT22;22841;50.252;18.688;2022-09-17T18:24:49;11.80;91.70
36924;DHT22;22841;50.252;18.688;2022-09-17T18:27:15;11.80;90.00
36924;DHT22;22841;50.252;18.688;2022-09-17T18:29:41;11.80;90.90
36924;DHT22;22841;50.252;18.688;2022-09-17T18:32:08;11.70;91.00
36924;DHT22;22841;50.252;18.688;2022-09-17T18:34:34;11.70;89.90
36924;DHT22;22841;50.252;18.688;2022-09-17T18:37:02;11.70;90.20
36924;DHT22;22841;50.252;18.688;2022-09-17T18:39:28;11.70;90.70
36924;DHT22;22841;50.252;18.688;2022-09-17T18:41:55;11.60;93.20
36924;DHT22;22841;50.252;18.688;2022-09-17T18:44:21;11.60;92.30
36924;DHT22;22841;50.252;18.688;2022-09-17T18:46:47;11.50;93.30
36924;DHT22;22841;50.252;18.688;2022-09-17T18:49:16;11.50;92.50
36924;DHT22;22841;50.252;18.688;2022-09-17T18:51:42;11.50;93.70